createdAt,value
2022-09-20T00:03:36.129Z,101301.53
2022-09-20T00:07:40.156Z,101298.16
2022-09-20T00:11:43.013Z,101297.34
2022-09-20T00:15:47.314Z,101301.91
2022-09-20T00:19:50.130Z,101298.91
2022-09-20T00:23:54.646Z,101297.59
2022-09-20T00:27:57.404Z,101295.91
2022-09-20T00:32:00.358Z,101297.81
2022-09-20T00:36:03.738Z,101288.09
2022-09-20T00:40:11.140Z,101299.06
2022-09-20T00:44:42.636Z,101300.31
2022-09-20T00:48:45.568Z,101302.84
2022-09-20T00:52:52.473Z,101305.34
2022-09-20T00:56:56.839Z,101297.75
2022-09-20T01:01:00.341Z,101298.22
2022-09-20T01:05:03.075Z,101293.19
2022-09-20T01:09:07.770Z,101287.69
2022-09-20T01:18:39.300Z,101282.59
2022-09-20T01:23:13.117Z,101279.25
2022-09-20T01:27:25.683Z,101276.31
2022-09-20T01:31:34.527Z,101278.66
2022-09-20T01:35:39.431Z,101287.69
2022-09-20T01:39:53.303Z,101288.09
2022-09-20T01:44:00.068Z,101293.38
2022-09-20T01:48:13.318Z,101293.97
2022-09-20T01:53:07.016Z,101293.19
2022-09-20T01:57:39.013Z,101292.78
2022-09-20T02:02:17.383Z,101278.28
2022-09-20T02:06:42.002Z,101275.56
2022-09-20T02:11:08.010Z,101270.72
2022-09-20T02:15:25.616Z,101272.13
2022-09-20T02:19:51.607Z,101274.84
2022-09-20T02:24:05.885Z,101275.84
2022-09-20T02:28:24.291Z,101273.34
2022-09-20T02:32:44.534Z,101277.69
2022-09-20T02:37:04.056Z,101281.88
2022-09-20T02:41:33.596Z,101283.56
2022-09-20T02:45:44.229Z,101284.22
2022-09-20T02:49:57.128Z,101292.19
2022-09-20T02:54:13.060Z,101283.56
2022-09-20T02:58:29.400Z,101281.22
2022-09-20T03:02:41.639Z,101278.88
2022-09-20T03:06:51.869Z,101274.84
2022-09-20T03:11:05.153Z,101277.31
2022-09-20T03:15:22.767Z,101281.75
2022-09-20T03:19:37.610Z,101285.94
2022-09-20T03:23:55.635Z,101287.84
2022-09-20T03:28:09.690Z,101292.88
2022-09-20T03:32:27.776Z,101300.91
2022-09-20T03:36:48.398Z,101295.47
2022-09-20T03:41:23.455Z,101303.94
2022-09-20T03:45:42.279Z,101291.28
2022-09-20T03:50:24.297Z,101296.75
2022-09-20T03:54:52.776Z,101302.63
2022-09-20T03:59:08.177Z,101302.00
2022-09-20T04:03:37.650Z,101301.56
2022-09-20T04:07:54.892Z,101306.16
2022-09-20T04:12:04.639Z,101306.38
2022-09-20T04:16:27.090Z,101303.81
2022-09-20T04:20:37.651Z,101311.38
2022-09-20T04:24:51.242Z,101306.81
2022-09-20T04:29:02.277Z,101302.84
2022-09-20T04:33:12.931Z,101302.84
2022-09-20T04:37:27.746Z,101315.94
2022-09-20T04:41:54.076Z,101318.25
2022-09-20T04:46:29.525Z,101315.28
2022-09-20T04:51:03.333Z,101314.78
2022-09-20T04:55:47.241Z,101318.13
2022-09-20T05:00:04.154Z,101323.81
2022-09-20T05:04:56.649Z,101325.00
2022-09-20T05:09:25.462Z,101326.03
2022-09-20T05:13:38.639Z,101328.13
2022-09-20T05:18:04.034Z,101333.13
2022-09-20T05:22:31.546Z,101341.56
2022-09-20T05:26:47.482Z,101334.91
2022-09-20T05:30:54.341Z,101338.69
2022-09-20T05:35:05.802Z,101345.34
2022-09-20T05:39:23.649Z,101342.00
2022-09-20T05:43:32.801Z,101354.38
2022-09-20T05:47:50.741Z,101347.94
2022-09-20T05:52:08.466Z,101359.81
2022-09-20T05:56:19.353Z,101356.91
2022-09-20T06:00:29.158Z,101358.22
2022-09-20T06:04:40.018Z,101353.56
2022-09-20T06:09:05.040Z,101359.66
2022-09-20T06:13:34.969Z,101360.31
2022-09-20T06:17:43.665Z,101361.22
2022-09-20T06:21:52.636Z,101368.06
2022-09-20T06:26:00.920Z,101372.31
2022-09-20T06:30:08.851Z,101372.81
2022-09-20T06:34:16.600Z,101366.53
2022-09-20T06:38:51.739Z,101378.03
2022-09-20T06:42:56.062Z,101374.91
2022-09-20T06:46:59.714Z,101373.31
2022-09-20T06:51:02.906Z,101371.56
2022-09-20T06:55:07.496Z,101374.50
2022-09-20T06:59:12.281Z,101373.31
2022-09-20T07:03:15.238Z,101383.06
2022-09-20T07:07:19.257Z,101378.50
2022-09-20T07:11:23.339Z,101374.78
2022-09-20T07:15:28.411Z,101373.38
2022-09-20T07:19:31.341Z,101376.59
2022-09-20T07:23:34.062Z,101385.53
2022-09-20T07:27:36.787Z,101371.59
2022-09-20T07:31:40.936Z,101358.88
2022-09-20T07:35:43.985Z,101368.44
2022-09-20T07:39:46.929Z,101351.09
2022-09-20T07:43:50.975Z,101318.75
2022-09-20T07:47:59.614Z,101306.44
2022-09-20T07:52:02.815Z,101299.41
2022-09-20T07:56:07.915Z,101291.28
2022-09-20T08:00:13.172Z,101297.41
2022-09-20T08:04:17.408Z,101294.63
2022-09-20T08:08:20.360Z,101297.00
2022-09-20T08:16:48.346Z,101287.09
2022-09-20T08:20:52.665Z,101296.31
2022-09-20T08:24:55.492Z,101297.06
2022-09-20T08:29:00.227Z,101280.44
2022-09-20T08:33:07.138Z,101295.13
2022-09-20T08:37:11.200Z,101301.91
2022-09-20T08:41:16.869Z,101294.72
2022-09-20T08:45:23.228Z,101308.75
2022-09-20T08:49:36.829Z,101304.69
2022-09-20T08:53:49.114Z,101309.22
2022-09-20T08:57:55.140Z,101312.28
2022-09-20T09:01:59.064Z,101304.53
2022-09-20T09:06:04.143Z,101308.69
2022-09-20T09:10:10.810Z,101314.94
2022-09-20T09:14:36.099Z,101307.53
2022-09-20T09:18:41.069Z,101305.78
2022-09-20T09:22:46.332Z,101301.97
2022-09-20T09:26:50.595Z,101302.69
2022-09-20T09:30:54.228Z,101299.50
2022-09-20T09:34:57.545Z,101299.34
2022-09-20T09:39:24.545Z,101314.59
2022-09-20T09:43:31.587Z,101309.66
2022-09-20T09:47:38.529Z,101311.41
2022-09-20T09:51:43.356Z,101300.88
2022-09-20T09:56:02.659Z,101308.69
2022-09-20T10:00:19.809Z,101298.22
2022-09-20T10:04:36.417Z,101298.22
2022-09-20T10:08:56.697Z,101297.00
2022-09-20T10:13:11.966Z,101295.78
2022-09-20T10:17:29.393Z,101295.19
2022-09-20T10:21:44.146Z,101293.53
2022-09-20T10:25:56.402Z,101296.88
2022-09-20T10:30:09.077Z,101295.22
2022-09-20T10:34:47.649Z,101305.59
2022-09-20T10:38:58.337Z,101286.97
2022-09-20T10:43:16.675Z,101313.31
2022-09-20T10:47:22.442Z,101304.59
2022-09-20T10:51:43.273Z,101315.44
2022-09-20T10:55:53.103Z,101318.53
2022-09-20T11:00:04.621Z,101316.91
2022-09-20T11:04:33.090Z,101329.44
2022-09-20T11:08:39.700Z,101336.47
2022-09-20T11:12:50.892Z,101351.28
2022-09-20T11:17:00.443Z,101353.84
2022-09-20T11:21:10.129Z,101357.47
2022-09-20T11:25:21.739Z,101356.78
2022-09-20T11:29:32.757Z,101367.31
2022-09-20T11:33:42.294Z,101365.84
2022-09-20T11:37:50.843Z,101359.69
2022-09-20T11:41:57.641Z,101375.84
2022-09-20T11:46:04.896Z,101395.53
2022-09-20T11:50:39.579Z,101424.31
2022-09-20T11:55:13.196Z,101433.66
2022-09-20T11:59:29.456Z,101443.28
2022-09-20T12:03:37.517Z,101456.38
2022-09-20T12:07:42.446Z,101470.31
2022-09-20T12:11:45.259Z,101470.31
2022-09-20T12:16:00.506Z,101471.22
2022-09-20T12:20:03.238Z,101474.22
2022-09-20T12:24:23.801Z,101472.53
2022-09-20T12:28:34.292Z,101468.00
2022-09-20T12:32:57.589Z,101444.59
2022-09-20T12:37:24.397Z,101427.88
2022-09-20T12:41:29.104Z,101416.75
2022-09-20T12:45:32.185Z,101391.75
2022-09-20T12:50:08.396Z,101369.41
2022-09-20T12:54:14.610Z,101359.94
2022-09-20T12:58:25.270Z,101359.56
2022-09-20T13:03:01.222Z,101341.69
2022-09-20T13:07:43.566Z,101344.81
2022-09-20T13:11:52.532Z,101343.31
2022-09-20T13:15:56.406Z,101339.94
2022-09-20T13:20:00.346Z,101342.44
2022-09-20T13:24:04.815Z,101335.97
2022-09-20T13:28:20.465Z,101341.28
2022-09-20T13:32:26.430Z,101339.81
2022-09-20T13:36:31.880Z,101336.81
2022-09-20T13:40:38.690Z,101331.91
2022-09-20T13:44:44.529Z,101336.22
2022-09-20T13:48:48.253Z,101336.50
2022-09-20T13:52:52.911Z,101331.44
2022-09-20T13:57:00.090Z,101329.38
2022-09-20T14:01:07.367Z,101324.13
2022-09-20T14:05:19.562Z,101327.91
2022-09-20T14:09:29.017Z,101325.56
2022-09-20T14:13:39.048Z,101318.84
2022-09-20T14:17:42.201Z,101315.03
2022-09-20T14:21:46.089Z,101301.84
2022-09-20T14:26:06.956Z,101297.81
2022-09-20T14:30:33.259Z,101293.84
2022-09-20T14:34:37.562Z,101292.47
2022-09-20T14:38:40.412Z,101296.56
2022-09-20T14:42:46.818Z,101297.41
2022-09-20T14:46:50.919Z,101302.13
2022-09-20T14:51:26.881Z,101295.66
2022-09-20T14:55:36.953Z,101295.06
2022-09-20T14:59:44.287Z,101294.41
2022-09-20T15:03:48.472Z,101300.91
2022-09-20T15:07:51.609Z,101289.75
2022-09-20T15:12:05.621Z,101294.19
2022-09-20T15:16:08.589Z,101295.84
2022-09-20T15:20:23.743Z,101290.25
2022-09-20T15:24:28.418Z,101295.50
2022-09-20T15:28:32.856Z,101298.19
2022-09-20T15:32:35.578Z,101292.91
2022-09-20T15:36:40.250Z,101296.63
2022-09-20T15:40:43.960Z,101283.94
2022-09-20T15:44:46.656Z,101293.84
2022-09-20T15:48:49.642Z,101285.97
2022-09-20T15:52:57.993Z,101291.47
2022-09-20T15:57:04.119Z,101290.63
2022-09-20T16:01:08.377Z,101285.44
2022-09-20T16:05:12.317Z,101291.44
2022-09-20T16:09:16.902Z,101295.28
2022-09-20T16:13:19.796Z,101296.75
2022-09-20T16:17:42.741Z,101298.44
2022-09-20T16:21:51.313Z,101298.31
2022-09-20T16:25:57.904Z,101315.81
2022-09-20T16:30:00.888Z,101309.78
2022-09-20T16:34:05.467Z,101308.75
2022-09-20T16:38:10.413Z,101306.44
2022-09-20T16:42:15.383Z,101311.81
2022-09-20T16:46:20.480Z,101297.56
2022-09-20T16:55:49.003Z,101308.91
2022-09-20T16:59:56.384Z,101311.34
2022-09-20T17:03:59.876Z,101315.75
2022-09-20T17:08:03.022Z,101315.25
2022-09-20T17:12:09.442Z,101315.47
2022-09-20T17:16:16.270Z,101313.47
2022-09-20T17:20:19.259Z,101316.22
2022-09-20T17:24:25.270Z,101328.38
2022-09-20T17:28:27.939Z,101337.84
2022-09-20T17:32:31.998Z,101355.81
2022-09-20T17:36:36.854Z,101355.94
2022-09-20T17:40:39.743Z,101362.75
2022-09-20T17:44:43.221Z,101374.78
2022-09-20T17:48:49.047Z,101384.28
2022-09-20T17:52:51.773Z,101390.97
2022-09-20T17:56:56.551Z,101398.09
2022-09-20T18:01:12.406Z,101421.19
2022-09-20T18:05:16.836Z,101418.56
2022-09-20T18:09:21.595Z,101434.94
2022-09-20T18:13:24.617Z,101439.78
2022-09-20T18:17:27.598Z,101450.63
2022-09-20T18:21:33.704Z,101459.41
2022-09-20T18:25:56.594Z,101459.34
2022-09-20T18:29:59.627Z,101480.91
2022-09-20T18:34:03.712Z,101481.28
2022-09-20T18:38:08.304Z,101474.88
2022-09-20T18:42:11.076Z,101484.69
2022-09-20T18:46:13.999Z,101489.94
2022-09-20T18:50:17.499Z,101484.75
2022-09-20T18:54:21.860Z,101494.44
2022-09-20T18:58:25.641Z,101494.19
2022-09-20T19:02:52.221Z,101502.00
2022-09-20T19:07:03.922Z,101521.06
2022-09-20T19:11:13.638Z,101525.53
2022-09-20T19:15:31.273Z,101519.50
2022-09-20T19:19:48.721Z,101524.59
2022-09-20T19:24:07.380Z,101534.50
2022-09-20T19:28:13.899Z,101544.81
2022-09-20T19:32:21.260Z,101548.34
2022-09-20T19:36:24.797Z,101552.22
2022-09-20T19:40:36.185Z,101550.44
2022-09-20T19:44:51.186Z,101560.22
2022-09-20T19:49:02.529Z,101558.91
2022-09-20T19:53:06.333Z,101565.19
2022-09-20T19:57:15.988Z,101572.72
2022-09-20T20:01:21.548Z,101577.94
2022-09-20T20:05:27.722Z,101580.00
2022-09-20T20:09:39.961Z,101584.16
2022-09-20T20:14:04.552Z,101582.47
2022-09-20T20:18:20.646Z,101595.50
2022-09-20T20:22:38.418Z,101591.28
2022-09-20T20:26:42.041Z,101605.13
2022-09-20T20:30:44.993Z,101598.56
2022-09-20T20:34:49.203Z,101597.22
2022-09-20T20:38:53.495Z,101604.88
2022-09-20T20:43:02.531Z,101600.72
2022-09-20T20:47:07.165Z,101608.94
2022-09-20T20:51:13.592Z,101620.94
2022-09-20T20:55:16.390Z,101613.50
2022-09-20T20:59:19.103Z,101620.84
2022-09-20T21:03:21.902Z,101629.31
2022-09-20T21:07:25.984Z,101627.84
2022-09-20T21:11:30.240Z,101633.69
2022-09-20T21:15:33.127Z,101634.72
2022-09-20T21:19:35.957Z,101621.28
2022-09-20T21:23:40.202Z,101638.00
2022-09-20T21:27:42.852Z,101635.09
2022-09-20T21:31:47.326Z,101639.03
2022-09-20T21:35:50.083Z,101644.84
2022-09-20T21:39:54.684Z,101631.38
2022-09-20T21:44:00.240Z,101634.94
2022-09-20T21:48:05.423Z,101644.00
2022-09-20T21:52:08.270Z,101646.41
2022-09-20T21:56:13.976Z,101635.31
2022-09-20T22:00:17.225Z,101641.28
2022-09-20T22:04:20.017Z,101643.00
2022-09-20T22:08:22.701Z,101651.47
2022-09-20T22:12:26.850Z,101640.22
2022-09-20T22:16:31.025Z,101646.38
2022-09-20T22:20:33.864Z,101645.00
2022-09-20T22:24:36.688Z,101643.63
2022-09-20T22:28:41.406Z,101641.94
2022-09-20T22:32:44.426Z,101643.63
2022-09-20T22:36:47.640Z,101638.84
2022-09-20T22:40:55.008Z,101639.88
2022-09-20T22:44:59.678Z,101642.94
2022-09-20T22:49:02.659Z,101641.75
2022-09-20T22:53:05.478Z,101641.25
2022-09-20T22:57:08.177Z,101649.63
2022-09-20T23:01:14.341Z,101654.38
2022-09-20T23:05:18.328Z,101650.75
2022-09-20T23:09:21.608Z,101652.81
2022-09-20T23:13:24.431Z,101657.25
2022-09-20T23:17:28.473Z,101654.50
2022-09-20T23:21:31.538Z,101652.13
2022-09-20T23:25:34.370Z,101647.53
2022-09-20T23:29:37.040Z,101648.72
2022-09-20T23:33:46.512Z,101646.63
2022-09-20T23:37:49.566Z,101651.75
2022-09-20T23:41:52.401Z,101645.78
2022-09-20T23:45:55.253Z,101637.56
2022-09-20T23:49:59.315Z,101646.31
2022-09-20T23:54:02.462Z,101646.91
2022-09-20T23:58:05.843Z,101650.00
